sensor_id;sensor_type;location;lat;lon;timestamp;temperature;humidity
2941;DHT22;1480;51.456;6.670;2022-09-09T00:24:45;19.10;83.30
2941;DHT22;1480;51.456;6.670;2022-09-09T00:27:49;19.00;83.40
2941;DHT22;1480;51.456;6.670;2022-09-09T00:31:34;18.80;83.80
2941;DHT22;1480;51.456;6.670;2022-09-09T00:35:02;18.80;83.80
2941;DHT22;1480;51.456;6.670;2022-09-09T00:38:12;18.50;84.60
2941;DHT22;1480;51.456;6.670;2022-09-09T00:42:02;18.40;84.70
2941;DHT22;1480;51.456;6.670;2022-09-09T00:45:09;18.40;85.50
2941;DHT22;1480;51.456;6.670;2022-09-09T00:48:01;18.50;85.80
2941;DHT22;1480;51.456;6.670;2022-09-09T00:52:12;18.70;85.50
2941;DHT22;1480;51.456;6.670;2022-09-09T00:55:02;18.70;84.80
2941;DHT22;1480;51.456;6.670;2022-09-09T00:58:01;18.80;84.90
2941;DHT22;1480;51.456;6.670;2022-09-09T01:01:03;18.70;84.70
2941;DHT22;1480;51.456;6.670;2022-09-09T01:03:43;18.70;85.30
2941;DHT22;1480;51.456;6.670;2022-09-09T01:06:30;18.60;84.90
2941;DHT22;1480;51.456;6.670;2022-09-09T01:09:07;18.70;85.10
2941;DHT22;1480;51.456;6.670;2022-09-09T01:11:51;18.50;85.50
2941;DHT22;1480;51.456;6.670;2022-09-09T01:14:41;18.60;85.40
2941;DHT22;1480;51.456;6.670;2022-09-09T01:17:15;18.40;84.90
2941;DHT22;1480;51.456;6.670;2022-09-09T01:20:13;18.30;85.10
2941;DHT22;1480;51.456;6.670;2022-09-09T01:23:17;18.30;86.00
2941;DHT22;1480;51.456;6.670;2022-09-09T01:26:19;18.30;86.00
2941;DHT22;1480;51.456;6.670;2022-09-09T01:28:55;18.40;86.00
2941;DHT22;1480;51.456;6.670;2022-09-09T01:31:40;18.50;85.40
2941;DHT22;1480;51.456;6.670;2022-09-09T01:34:14;18.50;85.60
2941;DHT22;1480;51.456;6.670;2022-09-09T01:36:47;18.50;85.20
2941;DHT22;1480;51.456;6.670;2022-09-09T01:39:24;18.40;85.00
2941;DHT22;1480;51.456;6.670;2022-09-09T01:42:07;18.20;85.40
2941;DHT22;1480;51.456;6.670;2022-09-09T01:44:39;18.30;85.70
2941;DHT22;1480;51.456;6.670;2022-09-09T01:47:20;18.30;85.30
2941;DHT22;1480;51.456;6.670;2022-09-09T01:50:15;18.50;85.00
2941;DHT22;1480;51.456;6.670;2022-09-09T01:52:43;18.30;85.90
2941;DHT22;1480;51.456;6.670;2022-09-09T01:55:13;18.30;85.60
2941;DHT22;1480;51.456;6.670;2022-09-09T01:57:52;18.40;86.30
2941;DHT22;1480;51.456;6.670;2022-09-09T02:00:44;18.30;86.10
2941;DHT22;1480;51.456;6.670;2022-09-09T02:03:21;18.30;86.90
2941;DHT22;1480;51.456;6.670;2022-09-09T02:06:05;18.20;86.50
2941;DHT22;1480;51.456;6.670;2022-09-09T02:08:42;18.10;87.90
2941;DHT22;1480;51.456;6.670;2022-09-09T02:11:21;18.10;88.30
2941;DHT22;1480;51.456;6.670;2022-09-09T02:14:27;18.40;87.30
2941;DHT22;1480;51.456;6.670;2022-09-09T02:17:05;18.40;87.10
2941;DHT22;1480;51.456;6.670;2022-09-09T02:19:54;18.40;86.30
2941;DHT22;1480;51.456;6.670;2022-09-09T02:22:37;18.60;86.00
2941;DHT22;1480;51.456;6.670;2022-09-09T02:25:15;18.60;86.00
2941;DHT22;1480;51.456;6.670;2022-09-09T02:27:48;18.70;85.80
2941;DHT22;1480;51.456;6.670;2022-09-09T02:30:25;18.80;85.50
2941;DHT22;1480;51.456;6.670;2022-09-09T02:32:58;18.90;84.70
2941;DHT22;1480;51.456;6.670;2022-09-09T02:35:45;18.90;84.80
2941;DHT22;1480;51.456;6.670;2022-09-09T02:38:26;18.80;84.00
2941;DHT22;1480;51.456;6.670;2022-09-09T02:41:05;18.80;84.20
2941;DHT22;1480;51.456;6.670;2022-09-09T02:43:34;18.80;84.00
2941;DHT22;1480;51.456;6.670;2022-09-09T02:46:21;18.70;83.90
2941;DHT22;1480;51.456;6.670;2022-09-09T02:48:59;18.60;83.90
2941;DHT22;1480;51.456;6.670;2022-09-09T02:51:35;18.60;83.60
2941;DHT22;1480;51.456;6.670;2022-09-09T02:54:10;18.50;83.60
2941;DHT22;1480;51.456;6.670;2022-09-09T02:56:47;18.60;84.00
2941;DHT22;1480;51.456;6.670;2022-09-09T02:59:17;18.50;84.70
2941;DHT22;1480;51.456;6.670;2022-09-09T03:01:46;18.40;84.30
2941;DHT22;1480;51.456;6.670;2022-09-09T03:04:14;18.50;84.60
2941;DHT22;1480;51.456;6.670;2022-09-09T03:06:41;18.60;84.60
2941;DHT22;1480;51.456;6.670;2022-09-09T03:09:17;18.60;85.00
2941;DHT22;1480;51.456;6.670;2022-09-09T03:11:44;18.40;84.10
2941;DHT22;1480;51.456;6.670;2022-09-09T03:14:13;18.40;85.00
2941;DHT22;1480;51.456;6.670;2022-09-09T03:16:40;18.40;85.50
2941;DHT22;1480;51.456;6.670;2022-09-09T03:19:11;18.30;85.30
2941;DHT22;1480;51.456;6.670;2022-09-09T03:21:40;18.50;85.20
2941;DHT22;1480;51.456;6.670;2022-09-09T03:24:07;18.40;84.60
2941;DHT22;1480;51.456;6.670;2022-09-09T03:26:35;18.50;85.30
2941;DHT22;1480;51.456;6.670;2022-09-09T03:29:03;18.60;85.00
2941;DHT22;1480;51.456;6.670;2022-09-09T03:31:32;18.60;84.90
2941;DHT22;1480;51.456;6.670;2022-09-09T03:33:59;18.70;84.70
2941;DHT22;1480;51.456;6.670;2022-09-09T03:36:31;18.70;84.80
2941;DHT22;1480;51.456;6.670;2022-09-09T03:39:00;18.60;84.70
2941;DHT22;1480;51.456;6.670;2022-09-09T03:41:30;18.50;84.60
2941;DHT22;1480;51.456;6.670;2022-09-09T03:43:59;18.70;85.10
2941;DHT22;1480;51.456;6.670;2022-09-09T03:46:29;18.70;84.70
2941;DHT22;1480;51.456;6.670;2022-09-09T03:48:58;18.60;84.80
2941;DHT22;1480;51.456;6.670;2022-09-09T03:51:30;18.60;84.80
2941;DHT22;1480;51.456;6.670;2022-09-09T03:53:57;18.50;85.40
2941;DHT22;1480;51.456;6.670;2022-09-09T03:56:26;18.50;85.60
2941;DHT22;1480;51.456;6.670;2022-09-09T03:58:53;18.50;85.50
2941;DHT22;1480;51.456;6.670;2022-09-09T04:01:20;18.50;85.70
2941;DHT22;1480;51.456;6.670;2022-09-09T04:03:47;18.50;85.40
2941;DHT22;1480;51.456;6.670;2022-09-09T04:06:16;18.60;85.60
2941;DHT22;1480;51.456;6.670;2022-09-09T04:08:47;18.70;85.60
2941;DHT22;1480;51.456;6.670;2022-09-09T04:11:15;18.50;86.00
2941;DHT22;1480;51.456;6.670;2022-09-09T04:13:44;18.50;86.10
2941;DHT22;1480;51.456;6.670;2022-09-09T04:16:12;18.60;85.90
2941;DHT22;1480;51.456;6.670;2022-09-09T04:18:41;18.50;85.80
2941;DHT22;1480;51.456;6.670;2022-09-09T04:21:09;18.70;85.80
2941;DHT22;1480;51.456;6.670;2022-09-09T04:23:37;18.60;85.70
2941;DHT22;1480;51.456;6.670;2022-09-09T04:26:08;18.80;85.60
2941;DHT22;1480;51.456;6.670;2022-09-09T04:28:36;18.70;85.00
2941;DHT22;1480;51.456;6.670;2022-09-09T04:31:14;18.70;85.70
2941;DHT22;1480;51.456;6.670;2022-09-09T04:33:46;18.70;85.20
2941;DHT22;1480;51.456;6.670;2022-09-09T04:36:13;18.70;84.90
2941;DHT22;1480;51.456;6.670;2022-09-09T04:38:41;18.60;85.10
2941;DHT22;1480;51.456;6.670;2022-09-09T04:41:11;18.70;84.90
2941;DHT22;1480;51.456;6.670;2022-09-09T04:43:42;18.70;85.20
2941;DHT22;1480;51.456;6.670;2022-09-09T04:46:11;18.70;85.10
2941;DHT22;1480;51.456;6.670;2022-09-09T04:48:38;18.60;85.40
2941;DHT22;1480;51.456;6.670;2022-09-09T04:51:09;18.60;85.50
2941;DHT22;1480;51.456;6.670;2022-09-09T04:53:44;18.60;85.60
2941;DHT22;1480;51.456;6.670;2022-09-09T04:56:15;18.50;85.40
2941;DHT22;1480;51.456;6.670;2022-09-09T04:58:49;18.70;85.00
2941;DHT22;1480;51.456;6.670;2022-09-09T05:01:18;18.70;85.00
2941;DHT22;1480;51.456;6.670;2022-09-09T05:03:59;18.80;85.20
2941;DHT22;1480;51.456;6.670;2022-09-09T05:06:27;18.80;84.70
2941;DHT22;1480;51.456;6.670;2022-09-09T05:08:59;18.80;84.50
2941;DHT22;1480;51.456;6.670;2022-09-09T05:11:32;18.80;84.20
2941;DHT22;1480;51.456;6.670;2022-09-09T05:14:14;18.90;84.30
2941;DHT22;1480;51.456;6.670;2022-09-09T05:16:41;19.00;84.00
2941;DHT22;1480;51.456;6.670;2022-09-09T05:19:10;19.00;84.30
2941;DHT22;1480;51.456;6.670;2022-09-09T05:21:53;19.00;84.10
2941;DHT22;1480;51.456;6.670;2022-09-09T05:24:26;18.80;84.30
2941;DHT22;1480;51.456;6.670;2022-09-09T05:26:57;18.80;84.10
2941;DHT22;1480;51.456;6.670;2022-09-09T05:29:27;18.80;84.00
2941;DHT22;1480;51.456;6.670;2022-09-09T05:31:55;18.80;84.20
2941;DHT22;1480;51.456;6.670;2022-09-09T05:34:23;18.90;83.80
2941;DHT22;1480;51.456;6.670;2022-09-09T05:36:51;18.80;83.70
2941;DHT22;1480;51.456;6.670;2022-09-09T05:39:20;18.80;84.50
2941;DHT22;1480;51.456;6.670;2022-09-09T05:41:47;18.80;84.30
2941;DHT22;1480;51.456;6.670;2022-09-09T05:44:15;18.70;84.70
2941;DHT22;1480;51.456;6.670;2022-09-09T05:46:43;18.70;84.60
2941;DHT22;1480;51.456;6.670;2022-09-09T05:49:14;18.70;84.90
2941;DHT22;1480;51.456;6.670;2022-09-09T05:51:43;18.70;84.40
2941;DHT22;1480;51.456;6.670;2022-09-09T05:54:12;18.60;85.00
2941;DHT22;1480;51.456;6.670;2022-09-09T05:56:43;18.60;85.40
2941;DHT22;1480;51.456;6.670;2022-09-09T05:59:10;18.60;85.20
2941;DHT22;1480;51.456;6.670;2022-09-09T06:01:40;18.40;86.00
2941;DHT22;1480;51.456;6.670;2022-09-09T06:04:14;18.50;85.10
2941;DHT22;1480;51.456;6.670;2022-09-09T06:06:41;18.50;85.80
2941;DHT22;1480;51.456;6.670;2022-09-09T06:09:15;18.70;86.10
2941;DHT22;1480;51.456;6.670;2022-09-09T06:11:43;18.70;85.60
2941;DHT22;1480;51.456;6.670;2022-09-09T06:14:13;18.70;85.10
2941;DHT22;1480;51.456;6.670;2022-09-09T06:16:41;18.80;85.10
2941;DHT22;1480;51.456;6.670;2022-09-09T06:19:25;18.90;84.60
2941;DHT22;1480;51.456;6.670;2022-09-09T06:21:55;18.80;85.00
2941;DHT22;1480;51.456;6.670;2022-09-09T06:24:22;18.80;85.30
2941;DHT22;1480;51.456;6.670;2022-09-09T06:26:49;18.80;85.70
2941;DHT22;1480;51.456;6.670;2022-09-09T06:29:25;18.90;85.30
2941;DHT22;1480;51.456;6.670;2022-09-09T06:31:54;19.00;84.40
2941;DHT22;1480;51.456;6.670;2022-09-09T06:34:26;19.10;84.40
2941;DHT22;1480;51.456;6.670;2022-09-09T06:36:56;19.40;83.90
2941;DHT22;1480;51.456;6.670;2022-09-09T06:39:24;19.40;83.30
2941;DHT22;1480;51.456;6.670;2022-09-09T06:41:54;19.30;82.80
2941;DHT22;1480;51.456;6.670;2022-09-09T06:44:52;19.20;83.00
2941;DHT22;1480;51.456;6.670;2022-09-09T06:47:40;19.20;82.90
2941;DHT22;1480;51.456;6.670;2022-09-09T06:50:08;19.20;82.70
2941;DHT22;1480;51.456;6.670;2022-09-09T06:52:41;19.10;83.60
2941;DHT22;1480;51.456;6.670;2022-09-09T06:55:11;19.30;83.20
2941;DHT22;1480;51.456;6.670;2022-09-09T06:57:38;19.60;82.60
2941;DHT22;1480;51.456;6.670;2022-09-09T07:00:12;19.80;81.90
2941;DHT22;1480;51.456;6.670;2022-09-09T07:02:43;19.90;80.90
2941;DHT22;1480;51.456;6.670;2022-09-09T07:05:12;19.90;80.50
2941;DHT22;1480;51.456;6.670;2022-09-09T07:07:41;20.10;79.90
2941;DHT22;1480;51.456;6.670;2022-09-09T07:10:10;20.20;79.50
2941;DHT22;1480;51.456;6.670;2022-09-09T07:12:37;20.30;79.50
2941;DHT22;1480;51.456;6.670;2022-09-09T07:15:09;20.40;79.80
2941;DHT22;1480;51.456;6.670;2022-09-09T07:17:42;20.40;77.10
2941;DHT22;1480;51.456;6.670;2022-09-09T07:20:09;20.20;77.50
2941;DHT22;1480;51.456;6.670;2022-09-09T07:22:36;20.10;78.40
2941;DHT22;1480;51.456;6.670;2022-09-09T07:25:06;20.20;78.80
2941;DHT22;1480;51.456;6.670;2022-09-09T07:27:53;20.20;78.90
2941;DHT22;1480;51.456;6.670;2022-09-09T07:30:26;20.30;78.10
2941;DHT22;1480;51.456;6.670;2022-09-09T07:32:56;20.20;77.20
2941;DHT22;1480;51.456;6.670;2022-09-09T07:35:24;20.20;77.00
2941;DHT22;1480;51.456;6.670;2022-09-09T07:37:52;20.30;77.10
2941;DHT22;1480;51.456;6.670;2022-09-09T07:40:19;20.50;76.90
2941;DHT22;1480;51.456;6.670;2022-09-09T07:42:48;20.60;76.30
2941;DHT22;1480;51.456;6.670;2022-09-09T07:45:15;20.70;77.20
2941;DHT22;1480;51.456;6.670;2022-09-09T07:47:42;20.60;75.40
2941;DHT22;1480;51.456;6.670;2022-09-09T07:50:10;20.50;75.20
2941;DHT22;1480;51.456;6.670;2022-09-09T07:52:38;20.60;75.70
2941;DHT22;1480;51.456;6.670;2022-09-09T07:55:06;20.40;75.20
2941;DHT22;1480;51.456;6.670;2022-09-09T07:57:35;20.50;74.50
2941;DHT22;1480;51.456;6.670;2022-09-09T08:00:05;20.60;74.10
2941;DHT22;1480;51.456;6.670;2022-09-09T08:02:38;20.60;72.70
2941;DHT22;1480;51.456;6.670;2022-09-09T08:05:05;20.60;73.70
2941;DHT22;1480;51.456;6.670;2022-09-09T08:07:34;20.60;72.60
2941;DHT22;1480;51.456;6.670;2022-09-09T08:10:02;20.70;71.80
2941;DHT22;1480;51.456;6.670;2022-09-09T08:12:31;20.70;71.90
2941;DHT22;1480;51.456;6.670;2022-09-09T08:14:58;20.70;72.30
2941;DHT22;1480;51.456;6.670;2022-09-09T08:17:29;20.70;71.40
2941;DHT22;1480;51.456;6.670;2022-09-09T08:20:00;20.80;71.60
2941;DHT22;1480;51.456;6.670;2022-09-09T08:22:31;20.90;72.40
2941;DHT22;1480;51.456;6.670;2022-09-09T08:25:00;21.00;71.00
2941;DHT22;1480;51.456;6.670;2022-09-09T08:27:31;20.90;68.90
2941;DHT22;1480;51.456;6.670;2022-09-09T08:29:59;21.10;69.30
2941;DHT22;1480;51.456;6.670;2022-09-09T08:32:28;21.20;67.10
2941;DHT22;1480;51.456;6.670;2022-09-09T08:34:55;21.30;66.70
2941;DHT22;1480;51.456;6.670;2022-09-09T08:37:23;21.50;68.30
2941;DHT22;1480;51.456;6.670;2022-09-09T08:39:50;21.70;67.70
2941;DHT22;1480;51.456;6.670;2022-09-09T08:42:35;21.80;65.70
2941;DHT22;1480;51.456;6.670;2022-09-09T08:45:29;21.90;67.10
2941;DHT22;1480;51.456;6.670;2022-09-09T08:48:17;22.00;64.80
2941;DHT22;1480;51.456;6.670;2022-09-09T08:50:49;21.60;64.20
2941;DHT22;1480;51.456;6.670;2022-09-09T08:53:23;21.50;65.90
2941;DHT22;1480;51.456;6.670;2022-09-09T08:55:53;21.40;65.00
2941;DHT22;1480;51.456;6.670;2022-09-09T08:58:30;21.10;65.60
2941;DHT22;1480;51.456;6.670;2022-09-09T09:01:14;21.10;65.90
2941;DHT22;1480;51.456;6.670;2022-09-09T09:03:55;21.00;66.50
2941;DHT22;1480;51.456;6.670;2022-09-09T09:06:35;21.00;66.00
2941;DHT22;1480;51.456;6.670;2022-09-09T09:09:13;20.80;68.30
2941;DHT22;1480;51.456;6.670;2022-09-09T09:11:47;20.80;68.60
2941;DHT22;1480;51.456;6.670;2022-09-09T09:14:20;21.00;67.40
2941;DHT22;1480;51.456;6.670;2022-09-09T09:16:53;21.20;66.50
2941;DHT22;1480;51.456;6.670;2022-09-09T09:19:23;21.20;66.40
2941;DHT22;1480;51.456;6.670;2022-09-09T09:21:58;21.40;66.40
2941;DHT22;1480;51.456;6.670;2022-09-09T09:24:36;21.30;65.30
2941;DHT22;1480;51.456;6.670;2022-09-09T09:27:12;21.30;64.40
2941;DHT22;1480;51.456;6.670;2022-09-09T09:29:59;21.30;65.60
2941;DHT22;1480;51.456;6.670;2022-09-09T09:32:49;21.20;65.90
2941;DHT22;1480;51.456;6.670;2022-09-09T09:35:29;21.10;64.90
2941;DHT22;1480;51.456;6.670;2022-09-09T09:38:01;21.00;65.00
2941;DHT22;1480;51.456;6.670;2022-09-09T09:40:34;20.90;66.00
2941;DHT22;1480;51.456;6.670;2022-09-09T09:43:18;21.00;65.00
2941;DHT22;1480;51.456;6.670;2022-09-09T09:45:49;21.00;65.40
2941;DHT22;1480;51.456;6.670;2022-09-09T09:48:17;21.10;64.70
2941;DHT22;1480;51.456;6.670;2022-09-09T09:50:48;21.20;65.10
2941;DHT22;1480;51.456;6.670;2022-09-09T09:53:22;21.40;63.90
2941;DHT22;1480;51.456;6.670;2022-09-09T09:55:55;21.90;63.80
2941;DHT22;1480;51.456;6.670;2022-09-09T09:58:23;22.20;61.60
2941;DHT22;1480;51.456;6.670;2022-09-09T10:00:54;22.50;59.90
2941;DHT22;1480;51.456;6.670;2022-09-09T10:03:26;22.70;58.80
2941;DHT22;1480;51.456;6.670;2022-09-09T10:05:58;22.90;58.80
2941;DHT22;1480;51.456;6.670;2022-09-09T10:08:27;23.20;61.30
2941;DHT22;1480;51.456;6.670;2022-09-09T10:11:20;23.20;57.80
2941;DHT22;1480;51.456;6.670;2022-09-09T10:14:08;23.00;57.70
2941;DHT22;1480;51.456;6.670;2022-09-09T10:16:57;23.00;58.10
2941;DHT22;1480;51.456;6.670;2022-09-09T10:19:30;23.00;58.10
2941;DHT22;1480;51.456;6.670;2022-09-09T10:22:15;23.10;59.70
2941;DHT22;1480;51.456;6.670;2022-09-09T10:28:09;22.90;57.60
2941;DHT22;1480;51.456;6.670;2022-09-09T10:30:50;22.80;57.50
2941;DHT22;1480;51.456;6.670;2022-09-09T10:33:28;22.80;57.90
2941;DHT22;1480;51.456;6.670;2022-09-09T10:36:22;22.50;56.90
2941;DHT22;1480;51.456;6.670;2022-09-09T10:39:02;22.20;56.90
2941;DHT22;1480;51.456;6.670;2022-09-09T10:41:44;22.10;57.40
2941;DHT22;1480;51.456;6.670;2022-09-09T10:44:29;22.00;57.90
2941;DHT22;1480;51.456;6.670;2022-09-09T10:47:18;21.90;59.00
2941;DHT22;1480;51.456;6.670;2022-09-09T10:50:16;21.80;59.50
2941;DHT22;1480;51.456;6.670;2022-09-09T10:52:59;21.70;59.50
2941;DHT22;1480;51.456;6.670;2022-09-09T10:55:40;21.70;59.30
2941;DHT22;1480;51.456;6.670;2022-09-09T10:58:33;21.90;60.00
2941;DHT22;1480;51.456;6.670;2022-09-09T11:01:14;22.20;59.90
2941;DHT22;1480;51.456;6.670;2022-09-09T11:03:52;22.30;59.30
2941;DHT22;1480;51.456;6.670;2022-09-09T11:06:28;22.40;57.70
2941;DHT22;1480;51.456;6.670;2022-09-09T11:09:13;22.60;58.50
2941;DHT22;1480;51.456;6.670;2022-09-09T11:11:56;22.60;57.70
2941;DHT22;1480;51.456;6.670;2022-09-09T11:14:34;22.60;57.00
2941;DHT22;1480;51.456;6.670;2022-09-09T11:17:12;22.40;57.50
2941;DHT22;1480;51.456;6.670;2022-09-09T11:19:42;22.20;59.60
2941;DHT22;1480;51.456;6.670;2022-09-09T11:22:21;22.20;58.60
2941;DHT22;1480;51.456;6.670;2022-09-09T11:24:59;22.30;59.50
2941;DHT22;1480;51.456;6.670;2022-09-09T11:27:36;22.30;59.40
2941;DHT22;1480;51.456;6.670;2022-09-09T11:30:19;22.40;58.40
2941;DHT22;1480;51.456;6.670;2022-09-09T11:33:15;22.60;57.60
2941;DHT22;1480;51.456;6.670;2022-09-09T11:35:58;22.60;57.80
2941;DHT22;1480;51.456;6.670;2022-09-09T11:38:36;22.60;57.40
2941;DHT22;1480;51.456;6.670;2022-09-09T11:41:07;22.60;56.70
2941;DHT22;1480;51.456;6.670;2022-09-09T11:43:43;22.60;58.30
2941;DHT22;1480;51.456;6.670;2022-09-09T11:46:13;22.50;57.80
2941;DHT22;1480;51.456;6.670;2022-09-09T11:48:42;22.50;58.80
2941;DHT22;1480;51.456;6.670;2022-09-09T11:51:12;22.50;57.50
2941;DHT22;1480;51.456;6.670;2022-09-09T11:53:52;22.50;56.30
2941;DHT22;1480;51.456;6.670;2022-09-09T11:56:27;22.50;57.30
2941;DHT22;1480;51.456;6.670;2022-09-09T11:58:59;22.60;56.40
2941;DHT22;1480;51.456;6.670;2022-09-09T12:01:34;22.60;57.40
2941;DHT22;1480;51.456;6.670;2022-09-09T12:04:30;22.80;57.40
2941;DHT22;1480;51.456;6.670;2022-09-09T12:07:00;22.80;56.30
2941;DHT22;1480;51.456;6.670;2022-09-09T12:09:43;22.70;55.90
2941;DHT22;1480;51.456;6.670;2022-09-09T12:12:28;22.70;57.10
2941;DHT22;1480;51.456;6.670;2022-09-09T12:15:17;22.70;57.10
2941;DHT22;1480;51.456;6.670;2022-09-09T12:17:50;22.50;57.60
2941;DHT22;1480;51.456;6.670;2022-09-09T12:20:31;22.60;58.40
2941;DHT22;1480;51.456;6.670;2022-09-09T12:23:19;22.60;59.30
2941;DHT22;1480;51.456;6.670;2022-09-09T12:26:00;22.70;56.90
2941;DHT22;1480;51.456;6.670;2022-09-09T12:28:44;22.60;57.50
2941;DHT22;1480;51.456;6.670;2022-09-09T12:31:17;22.50;60.60
2941;DHT22;1480;51.456;6.670;2022-09-09T12:33:47;22.30;61.30
2941;DHT22;1480;51.456;6.670;2022-09-09T12:36:17;22.40;62.90
2941;DHT22;1480;51.456;6.670;2022-09-09T12:38:48;22.60;62.20
2941;DHT22;1480;51.456;6.670;2022-09-09T12:41:22;22.50;61.20
2941;DHT22;1480;51.456;6.670;2022-09-09T12:43:50;22.40;63.50
2941;DHT22;1480;51.456;6.670;2022-09-09T12:46:26;22.40;66.40
2941;DHT22;1480;51.456;6.670;2022-09-09T12:48:57;22.00;67.90
2941;DHT22;1480;51.456;6.670;2022-09-09T12:51:27;21.80;71.20
2941;DHT22;1480;51.456;6.670;2022-09-09T12:53:55;21.80;72.00
2941;DHT22;1480;51.456;6.670;2022-09-09T12:56:25;21.70;72.00
2941;DHT22;1480;51.456;6.670;2022-09-09T12:58:55;21.50;73.00
2941;DHT22;1480;51.456;6.670;2022-09-09T13:01:24;21.50;71.20
2941;DHT22;1480;51.456;6.670;2022-09-09T13:03:51;21.30;71.20
2941;DHT22;1480;51.456;6.670;2022-09-09T13:06:21;20.90;72.60
2941;DHT22;1480;51.456;6.670;2022-09-09T13:08:49;20.90;75.20
2941;DHT22;1480;51.456;6.670;2022-09-09T13:11:19;21.10;75.10
2941;DHT22;1480;51.456;6.670;2022-09-09T13:13:54;21.30;73.00
2941;DHT22;1480;51.456;6.670;2022-09-09T13:16:25;21.40;72.90
2941;DHT22;1480;51.456;6.670;2022-09-09T13:18:53;21.60;73.70
2941;DHT22;1480;51.456;6.670;2022-09-09T13:21:32;21.80;71.90
2941;DHT22;1480;51.456;6.670;2022-09-09T13:24:00;21.80;72.00
2941;DHT22;1480;51.456;6.670;2022-09-09T13:26:29;22.10;72.90
2941;DHT22;1480;51.456;6.670;2022-09-09T13:29:16;22.10;70.30
2941;DHT22;1480;51.456;6.670;2022-09-09T13:31:44;22.10;69.30
2941;DHT22;1480;51.456;6.670;2022-09-09T13:34:12;22.10;69.00
2941;DHT22;1480;51.456;6.670;2022-09-09T13:36:48;22.30;68.30
2941;DHT22;1480;51.456;6.670;2022-09-09T13:39:16;22.30;68.40
2941;DHT22;1480;51.456;6.670;2022-09-09T13:41:45;22.10;66.90
2941;DHT22;1480;51.456;6.670;2022-09-09T13:44:21;22.10;66.90
2941;DHT22;1480;51.456;6.670;2022-09-09T13:47:02;22.20;65.70
2941;DHT22;1480;51.456;6.670;2022-09-09T13:49:30;22.10;65.30
2941;DHT22;1480;51.456;6.670;2022-09-09T13:52:09;22.30;65.20
2941;DHT22;1480;51.456;6.670;2022-09-09T13:54:37;22.40;65.30
2941;DHT22;1480;51.456;6.670;2022-09-09T13:57:05;22.30;65.10
2941;DHT22;1480;51.456;6.670;2022-09-09T13:59:36;22.40;65.70
2941;DHT22;1480;51.456;6.670;2022-09-09T14:02:04;22.40;65.50
2941;DHT22;1480;51.456;6.670;2022-09-09T14:04:31;22.40;64.60
2941;DHT22;1480;51.456;6.670;2022-09-09T14:07:00;22.40;64.90
2941;DHT22;1480;51.456;6.670;2022-09-09T14:09:28;22.40;63.00
2941;DHT22;1480;51.456;6.670;2022-09-09T14:11:55;22.30;65.10
2941;DHT22;1480;51.456;6.670;2022-09-09T14:14:22;22.30;64.00
2941;DHT22;1480;51.456;6.670;2022-09-09T14:16:50;22.30;64.50
2941;DHT22;1480;51.456;6.670;2022-09-09T14:19:17;22.20;64.40
2941;DHT22;1480;51.456;6.670;2022-09-09T14:21:44;22.20;64.70
2941;DHT22;1480;51.456;6.670;2022-09-09T14:24:11;22.30;65.20
2941;DHT22;1480;51.456;6.670;2022-09-09T14:26:39;22.10;64.60
2941;DHT22;1480;51.456;6.670;2022-09-09T14:29:07;22.00;64.60
2941;DHT22;1480;51.456;6.670;2022-09-09T14:31:34;21.90;65.50
2941;DHT22;1480;51.456;6.670;2022-09-09T14:34:03;21.80;67.80
2941;DHT22;1480;51.456;6.670;2022-09-09T14:36:29;21.40;68.00
2941;DHT22;1480;51.456;6.670;2022-09-09T14:38:56;20.70;74.00
2941;DHT22;1480;51.456;6.670;2022-09-09T14:41:24;20.50;74.70
2941;DHT22;1480;51.456;6.670;2022-09-09T14:43:51;20.10;75.10
2941;DHT22;1480;51.456;6.670;2022-09-09T14:46:20;19.90;77.20
2941;DHT22;1480;51.456;6.670;2022-09-09T14:48:47;19.60;77.90
2941;DHT22;1480;51.456;6.670;2022-09-09T14:51:18;19.30;79.50
2941;DHT22;1480;51.456;6.670;2022-09-09T14:53:47;19.10;80.30
2941;DHT22;1480;51.456;6.670;2022-09-09T14:56:16;18.90;80.60
2941;DHT22;1480;51.456;6.670;2022-09-09T14:58:46;18.80;82.60
2941;DHT22;1480;51.456;6.670;2022-09-09T15:01:15;18.70;83.00
2941;DHT22;1480;51.456;6.670;2022-09-09T15:03:48;18.70;82.20
2941;DHT22;1480;51.456;6.670;2022-09-09T15:06:17;18.80;83.10
2941;DHT22;1480;51.456;6.670;2022-09-09T15:08:45;18.60;82.80
2941;DHT22;1480;51.456;6.670;2022-09-09T15:11:15;18.50;84.70
2941;DHT22;1480;51.456;6.670;2022-09-09T15:13:43;18.60;84.90
2941;DHT22;1480;51.456;6.670;2022-09-09T15:16:13;18.70;84.00
2941;DHT22;1480;51.456;6.670;2022-09-09T15:18:42;18.60;84.60
2941;DHT22;1480;51.456;6.670;2022-09-09T15:21:15;18.50;85.90
2941;DHT22;1480;51.456;6.670;2022-09-09T15:23:48;18.70;85.80
2941;DHT22;1480;51.456;6.670;2022-09-09T15:26:29;18.80;85.60
2941;DHT22;1480;51.456;6.670;2022-09-09T15:28:58;18.90;85.50
2941;DHT22;1480;51.456;6.670;2022-09-09T15:31:34;18.90;86.20
2941;DHT22;1480;51.456;6.670;2022-09-09T15:34:04;19.00;86.70
2941;DHT22;1480;51.456;6.670;2022-09-09T15:36:39;19.30;86.80
2941;DHT22;1480;51.456;6.670;2022-09-09T15:39:18;19.50;86.00
2941;DHT22;1480;51.456;6.670;2022-09-09T15:41:50;19.70;85.20
2941;DHT22;1480;51.456;6.670;2022-09-09T15:47:54;20.00;83.20
2941;DHT22;1480;51.456;6.670;2022-09-09T15:50:29;20.10;83.10
2941;DHT22;1480;51.456;6.670;2022-09-09T15:52:58;20.20;83.50
2941;DHT22;1480;51.456;6.670;2022-09-09T15:55:29;20.40;82.80
2941;DHT22;1480;51.456;6.670;2022-09-09T15:58:21;20.40;81.50
2941;DHT22;1480;51.456;6.670;2022-09-09T16:00:48;20.40;81.50
2941;DHT22;1480;51.456;6.670;2022-09-09T16:03:15;20.40;81.80
2941;DHT22;1480;51.456;6.670;2022-09-09T16:05:50;20.50;81.30
2941;DHT22;1480;51.456;6.670;2022-09-09T16:08:17;20.50;80.70
2941;DHT22;1480;51.456;6.670;2022-09-09T16:10:48;20.50;80.40
2941;DHT22;1480;51.456;6.670;2022-09-09T16:13:19;20.40;80.90
2941;DHT22;1480;51.456;6.670;2022-09-09T16:16:01;20.50;80.80
2941;DHT22;1480;51.456;6.670;2022-09-09T16:18:33;20.50;81.00
2941;DHT22;1480;51.456;6.670;2022-09-09T16:21:07;20.50;80.30
2941;DHT22;1480;51.456;6.670;2022-09-09T16:23:38;20.20;80.30
2941;DHT22;1480;51.456;6.670;2022-09-09T16:26:14;20.20;80.60
2941;DHT22;1480;51.456;6.670;2022-09-09T16:28:47;20.10;80.90
2941;DHT22;1480;51.456;6.670;2022-09-09T16:31:23;20.00;79.60
2941;DHT22;1480;51.456;6.670;2022-09-09T16:37:30;19.80;79.80
2941;DHT22;1480;51.456;6.670;2022-09-09T16:40:03;19.80;80.50
2941;DHT22;1480;51.456;6.670;2022-09-09T16:42:52;19.70;80.60
2941;DHT22;1480;51.456;6.670;2022-09-09T16:45:21;19.90;80.90
2941;DHT22;1480;51.456;6.670;2022-09-09T16:47:56;19.90;80.40
2941;DHT22;1480;51.456;6.670;2022-09-09T16:50:44;20.00;81.00
2941;DHT22;1480;51.456;6.670;2022-09-09T16:53:17;20.00;81.50
2941;DHT22;1480;51.456;6.670;2022-09-09T16:55:44;20.10;81.80
2941;DHT22;1480;51.456;6.670;2022-09-09T16:58:17;20.10;82.00
2941;DHT22;1480;51.456;6.670;2022-09-09T17:00:46;20.20;81.60
2941;DHT22;1480;51.456;6.670;2022-09-09T17:03:54;20.10;82.40
2941;DHT22;1480;51.456;6.670;2022-09-09T17:06:33;20.20;82.30
2941;DHT22;1480;51.456;6.670;2022-09-09T17:09:31;20.20;82.50
2941;DHT22;1480;51.456;6.670;2022-09-09T17:12:00;20.20;82.20
2941;DHT22;1480;51.456;6.670;2022-09-09T17:14:28;20.20;81.90
2941;DHT22;1480;51.456;6.670;2022-09-09T17:17:13;20.00;82.40
2941;DHT22;1480;51.456;6.670;2022-09-09T17:19:57;20.00;82.60
2941;DHT22;1480;51.456;6.670;2022-09-09T17:23:03;19.90;83.40
2941;DHT22;1480;51.456;6.670;2022-09-09T17:25:31;19.90;83.10
2941;DHT22;1480;51.456;6.670;2022-09-09T17:27:58;19.90;83.50